Huvudsida
METAR-TAF:

METAR-TAF

Flygplatser :

Hasviks flygplats

Hasviks, Norge

latitud: 70-29N, longitud: 022-09E, höjd: 10 m

Aktuellt väderrapport

Denna rapport gjordes för 7 timmar och 16 minuter sedan, klockan 20:50 UTC
Vind 6 kt från ost
Temperatur -3°C
Fuktighet 63%
Tryck 1003 hPa
Sikt 10 km eller mer
Få moln på en höjd av 5000 ft

METAR: ENHK 152050Z 08006KT 9999 FEW050 M03/M09 Q1003

Tid: 05:06 (04:06 UTC)


TAF: saknas

Aktuella väderrapporter och prognoser från 4000 flygplatser (METAR- och TAF-rapporter).

De tillgängliga stationerna syns som gula och röda prickar på kartan.

För musen över prickarna för att se namnen på stationerna.

Klicka sedan för att få väderrapporter och prognoser.

För att ändra kartan: Klicka på de gröna knapparna med ett svart kors på för att zooma in; den gröna knappen med ett streck på för att zooma ut; eller på de gröna pilarna för angränsande kartor.


METAR-TAF: